sensor_id;sensor_type;location;lat;lon;timestamp;pressure;altitude;pressure_sealevel;temperature;humidity
56992;BME280;42885;49.754;18.636;2023-12-04T00:02:12;98908.71;;;0.65;76.74
56992;BME280;42885;49.754;18.636;2023-12-04T00:04:43;98904.48;;;0.56;77.83
56992;BME280;42885;49.754;18.636;2023-12-04T00:07:14;98902.51;;;0.37;77.61
56992;BME280;42885;49.754;18.636;2023-12-04T00:09:46;98899.97;;;0.34;78.05
56992;BME280;42885;49.754;18.636;2023-12-04T00:12:17;98896.07;;;0.37;78.52
56992;BME280;42885;49.754;18.636;2023-12-04T00:14:48;98895.73;;;0.26;78.31
56992;BME280;42885;49.754;18.636;2023-12-04T00:17:19;98901.67;;;0.36;77.81
56992;BME280;42885;49.754;18.636;2023-12-04T00:19:50;98901.81;;;0.67;76.26
56992;BME280;42885;49.754;18.636;2023-12-04T00:22:21;98905.06;;;0.85;75.77
56992;BME280;42885;49.754;18.636;2023-12-04T00:24:54;98903.26;;;0.93;75.00
56992;BME280;42885;49.754;18.636;2023-12-04T00:27:25;98903.97;;;0.66;76.89
56992;BME280;42885;49.754;18.636;2023-12-04T00:29:59;98907.15;;;0.48;78.30
56992;BME280;42885;49.754;18.636;2023-12-04T00:32:31;98912.67;;;0.54;78.51
56992;BME280;42885;49.754;18.636;2023-12-04T00:35:02;98910.36;;;0.72;77.36
56992;BME280;42885;49.754;18.636;2023-12-04T00:37:33;98914.59;;;0.76;77.30
56992;BME280;42885;49.754;18.636;2023-12-04T00:40:06;98907.94;;;0.55;78.72
56992;BME280;42885;49.754;18.636;2023-12-04T00:42:38;98903.34;;;0.40;79.67
56992;BME280;42885;49.754;18.636;2023-12-04T00:45:09;98909.31;;;0.46;79.77
56992;BME280;42885;49.754;18.636;2023-12-04T00:47:41;98909.81;;;0.39;80.65
56992;BME280;42885;49.754;18.636;2023-12-04T00:50:12;98910.47;;;0.60;80.13
56992;BME280;42885;49.754;18.636;2023-12-04T00:52:43;98907.83;;;0.67;77.25
56992;BME280;42885;49.754;18.636;2023-12-04T00:55:15;98904.80;;;0.70;77.32
56992;BME280;42885;49.754;18.636;2023-12-04T00:57:46;98912.95;;;0.69;77.39
56992;BME280;42885;49.754;18.636;2023-12-04T01:00:18;98907.42;;;0.65;78.21
56992;BME280;42885;49.754;18.636;2023-12-04T01:02:49;98910.41;;;0.67;78.75
56992;BME280;42885;49.754;18.636;2023-12-04T01:05:20;98905.63;;;0.70;79.59
56992;BME280;42885;49.754;18.636;2023-12-04T01:07:52;98907.84;;;0.64;79.40
56992;BME280;42885;49.754;18.636;2023-12-04T01:10:23;98914.09;;;0.37;80.29
56992;BME280;42885;49.754;18.636;2023-12-04T01:12:54;98918.28;;;0.50;80.00
56992;BME280;42885;49.754;18.636;2023-12-04T01:15:26;98919.69;;;0.38;81.07
56992;BME280;42885;49.754;18.636;2023-12-04T01:17:57;98914.58;;;0.33;81.82
56992;BME280;42885;49.754;18.636;2023-12-04T01:20:30;98920.23;;;0.23;81.74
56992;BME280;42885;49.754;18.636;2023-12-04T01:23:03;98924.02;;;0.33;82.21
56992;BME280;42885;49.754;18.636;2023-12-04T01:25:34;98920.83;;;-0.01;83.95
56992;BME280;42885;49.754;18.636;2023-12-04T01:28:05;98922.67;;;-0.18;84.95
56992;BME280;42885;49.754;18.636;2023-12-04T01:30:37;98925.14;;;-0.06;86.15
56992;BME280;42885;49.754;18.636;2023-12-04T01:33:08;98922.12;;;-0.01;85.69
56992;BME280;42885;49.754;18.636;2023-12-04T01:35:39;98922.05;;;0.10;86.27
56992;BME280;42885;49.754;18.636;2023-12-04T01:38:11;98929.03;;;-0.09;86.85
56992;BME280;42885;49.754;18.636;2023-12-04T01:40:43;98938.43;;;-0.05;86.90
56992;BME280;42885;49.754;18.636;2023-12-04T01:43:15;98935.72;;;0.16;86.98
56992;BME280;42885;49.754;18.636;2023-12-04T01:45:46;98933.90;;;0.30;86.32
56992;BME280;42885;49.754;18.636;2023-12-04T01:48:18;98928.83;;;0.19;85.67
56992;BME280;42885;49.754;18.636;2023-12-04T01:50:49;98919.16;;;0.51;84.78
56992;BME280;42885;49.754;18.636;2023-12-04T01:53:21;98931.40;;;0.22;85.64
56992;BME280;42885;49.754;18.636;2023-12-04T01:55:53;98920.61;;;0.27;86.68
56992;BME280;42885;49.754;18.636;2023-12-04T01:58:24;98929.50;;;0.45;86.73
56992;BME280;42885;49.754;18.636;2023-12-04T02:00:56;98924.81;;;0.39;86.93
56992;BME280;42885;49.754;18.636;2023-12-04T02:03:28;98922.19;;;0.47;86.73
56992;BME280;42885;49.754;18.636;2023-12-04T02:06:02;98921.73;;;0.49;87.28
56992;BME280;42885;49.754;18.636;2023-12-04T02:08:34;98925.30;;;0.34;87.71
56992;BME280;42885;49.754;18.636;2023-12-04T02:11:05;98922.81;;;0.23;88.23
56992;BME280;42885;49.754;18.636;2023-12-04T02:13:36;98926.22;;;0.27;88.84
56992;BME280;42885;49.754;18.636;2023-12-04T02:16:10;98922.43;;;0.16;89.87
56992;BME280;42885;49.754;18.636;2023-12-04T02:18:44;98921.40;;;0.39;89.66
56992;BME280;42885;49.754;18.636;2023-12-04T02:21:15;98920.61;;;0.31;89.84
56992;BME280;42885;49.754;18.636;2023-12-04T02:23:53;98919.89;;;0.13;90.61
56992;BME280;42885;49.754;18.636;2023-12-04T02:26:27;98916.10;;;0.01;90.84
56992;BME280;42885;49.754;18.636;2023-12-04T02:29:00;98915.72;;;-0.05;91.77
56992;BME280;42885;49.754;18.636;2023-12-04T02:31:34;98916.45;;;0.14;92.35
56992;BME280;42885;49.754;18.636;2023-12-04T02:34:07;98908.65;;;0.22;92.04
56992;BME280;42885;49.754;18.636;2023-12-04T02:36:39;98905.73;;;0.11;92.00
56992;BME280;42885;49.754;18.636;2023-12-04T02:39:12;98910.13;;;-0.02;92.66
56992;BME280;42885;49.754;18.636;2023-12-04T02:41:44;98913.95;;;0.05;93.26
56992;BME280;42885;49.754;18.636;2023-12-04T02:44:16;98911.23;;;0.20;92.32
56992;BME280;42885;49.754;18.636;2023-12-04T02:46:48;98907.78;;;0.23;91.81
56992;BME280;42885;49.754;18.636;2023-12-04T02:49:20;98908.61;;;0.26;91.61
56992;BME280;42885;49.754;18.636;2023-12-04T02:51:58;98907.81;;;0.21;91.98
56992;BME280;42885;49.754;18.636;2023-12-04T02:54:25;98899.72;;;0.11;90.87
56992;BME280;42885;49.754;18.636;2023-12-04T02:56:57;98902.70;;;0.15;91.68
56992;BME280;42885;49.754;18.636;2023-12-04T02:59:28;98906.22;;;0.05;91.70
56992;BME280;42885;49.754;18.636;2023-12-04T03:02:02;98899.75;;;0.09;91.72
56992;BME280;42885;49.754;18.636;2023-12-04T03:04:35;98906.03;;;0.30;89.60
56992;BME280;42885;49.754;18.636;2023-12-04T03:07:06;98911.39;;;0.52;88.59
56992;BME280;42885;49.754;18.636;2023-12-04T03:09:37;98914.37;;;0.58;87.56
56992;BME280;42885;49.754;18.636;2023-12-04T03:12:08;98908.86;;;0.48;87.79
56992;BME280;42885;49.754;18.636;2023-12-04T03:14:39;98905.95;;;0.37;87.71
56992;BME280;42885;49.754;18.636;2023-12-04T03:17:10;98914.88;;;0.48;87.30
56992;BME280;42885;49.754;18.636;2023-12-04T03:19:42;98916.63;;;0.43;87.81
56992;BME280;42885;49.754;18.636;2023-12-04T03:22:13;98915.38;;;0.42;87.49
56992;BME280;42885;49.754;18.636;2023-12-04T03:24:45;98911.02;;;0.48;86.63
56992;BME280;42885;49.754;18.636;2023-12-04T03:27:16;98918.70;;;0.53;86.64
56992;BME280;42885;49.754;18.636;2023-12-04T03:29:48;98917.88;;;0.48;86.52
56992;BME280;42885;49.754;18.636;2023-12-04T03:32:19;98923.11;;;0.38;87.50
56992;BME280;42885;49.754;18.636;2023-12-04T03:34:50;98924.09;;;0.25;88.46
56992;BME280;42885;49.754;18.636;2023-12-04T03:37:21;98927.05;;;0.31;88.55
56992;BME280;42885;49.754;18.636;2023-12-04T03:39:53;98926.47;;;0.47;88.42
56992;BME280;42885;49.754;18.636;2023-12-04T03:42:36;98933.86;;;0.35;88.66
56992;BME280;42885;49.754;18.636;2023-12-04T03:45:20;98931.28;;;0.35;89.31
56992;BME280;42885;49.754;18.636;2023-12-04T03:48:04;98929.17;;;0.31;89.77
56992;BME280;42885;49.754;18.636;2023-12-04T03:50:35;98938.81;;;0.06;90.87
56992;BME280;42885;49.754;18.636;2023-12-04T03:53:06;98933.63;;;0.09;92.06
56992;BME280;42885;49.754;18.636;2023-12-04T03:55:38;98939.13;;;0.19;91.47
56992;BME280;42885;49.754;18.636;2023-12-04T03:58:09;98939.55;;;0.20;91.76
56992;BME280;42885;49.754;18.636;2023-12-04T04:00:40;98941.55;;;0.43;90.04
56992;BME280;42885;49.754;18.636;2023-12-04T04:03:13;98945.91;;;0.33;89.67
56992;BME280;42885;49.754;18.636;2023-12-04T04:05:44;98944.66;;;0.28;88.94
56992;BME280;42885;49.754;18.636;2023-12-04T04:08:16;98938.05;;;0.50;89.01
56992;BME280;42885;49.754;18.636;2023-12-04T04:10:47;98944.41;;;0.56;88.40
56992;BME280;42885;49.754;18.636;2023-12-04T04:13:20;98944.58;;;0.39;87.74
56992;BME280;42885;49.754;18.636;2023-12-04T04:15:51;98949.59;;;-0.04;90.48
56992;BME280;42885;49.754;18.636;2023-12-04T04:18:22;98947.34;;;0.12;91.43
56992;BME280;42885;49.754;18.636;2023-12-04T04:20:54;98951.80;;;0.47;89.68
56992;BME280;42885;49.754;18.636;2023-12-04T04:23:25;98946.50;;;0.10;90.51
56992;BME280;42885;49.754;18.636;2023-12-04T04:25:56;98946.50;;;0.09;91.49
56992;BME280;42885;49.754;18.636;2023-12-04T04:28:27;98952.97;;;0.03;91.91
56992;BME280;42885;49.754;18.636;2023-12-04T04:30:59;98941.63;;;0.33;90.93
56992;BME280;42885;49.754;18.636;2023-12-04T04:33:30;98943.78;;;0.31;89.84
56992;BME280;42885;49.754;18.636;2023-12-04T04:36:01;98947.19;;;0.31;89.21
56992;BME280;42885;49.754;18.636;2023-12-04T04:38:32;98941.77;;;0.13;89.90
56992;BME280;42885;49.754;18.636;2023-12-04T04:41:03;98939.54;;;0.23;89.94
56992;BME280;42885;49.754;18.636;2023-12-04T04:43:34;98933.90;;;0.32;89.37
56992;BME280;42885;49.754;18.636;2023-12-04T04:46:07;98938.70;;;0.20;88.48
56992;BME280;42885;49.754;18.636;2023-12-04T04:48:39;98941.28;;;0.18;88.70
56992;BME280;42885;49.754;18.636;2023-12-04T04:51:10;98944.31;;;0.16;89.56
56992;BME280;42885;49.754;18.636;2023-12-04T04:53:42;98943.44;;;0.19;89.20
56992;BME280;42885;49.754;18.636;2023-12-04T04:56:13;98944.38;;;0.04;88.78
56992;BME280;42885;49.754;18.636;2023-12-04T04:58:44;98942.22;;;0.06;89.21
56992;BME280;42885;49.754;18.636;2023-12-04T05:01:15;98946.59;;;-0.05;89.44
56992;BME280;42885;49.754;18.636;2023-12-04T05:03:47;98942.80;;;-0.15;89.90
56992;BME280;42885;49.754;18.636;2023-12-04T05:06:18;98945.70;;;0.01;88.96
56992;BME280;42885;49.754;18.636;2023-12-04T05:08:49;98940.52;;;0.05;88.39
56992;BME280;42885;49.754;18.636;2023-12-04T05:11:22;98934.53;;;0.02;87.27
56992;BME280;42885;49.754;18.636;2023-12-04T05:13:53;98937.62;;;-0.11;87.67
56992;BME280;42885;49.754;18.636;2023-12-04T05:16:24;98937.14;;;-0.03;87.94
56992;BME280;42885;49.754;18.636;2023-12-04T05:18:55;98937.62;;;-0.11;87.41
56992;BME280;42885;49.754;18.636;2023-12-04T05:21:26;98938.22;;;-0.37;88.86
56992;BME280;42885;49.754;18.636;2023-12-04T05:23:59;98936.95;;;-0.45;89.44
56992;BME280;42885;49.754;18.636;2023-12-04T05:26:30;98932.67;;;-0.47;88.83
56992;BME280;42885;49.754;18.636;2023-12-04T05:29:01;98939.98;;;-0.53;88.77
56992;BME280;42885;49.754;18.636;2023-12-04T05:31:33;98933.98;;;-0.52;89.13
56992;BME280;42885;49.754;18.636;2023-12-04T05:34:04;98938.26;;;-0.51;89.60
56992;BME280;42885;49.754;18.636;2023-12-04T05:36:36;98938.27;;;-0.49;89.84
56992;BME280;42885;49.754;18.636;2023-12-04T05:39:07;98937.84;;;-0.49;90.71
56992;BME280;42885;49.754;18.636;2023-12-04T05:41:40;98937.38;;;-0.40;90.41
56992;BME280;42885;49.754;18.636;2023-12-04T05:44:11;98939.13;;;-0.50;89.85
56992;BME280;42885;49.754;18.636;2023-12-04T05:46:42;98937.52;;;-0.78;89.87
56992;BME280;42885;49.754;18.636;2023-12-04T05:49:13;98933.20;;;-0.71;89.37
56992;BME280;42885;49.754;18.636;2023-12-04T05:51:45;98927.73;;;-0.95;89.08
56992;BME280;42885;49.754;18.636;2023-12-04T05:54:16;98912.78;;;-1.08;89.19
56992;BME280;42885;49.754;18.636;2023-12-04T05:56:47;98924.36;;;-1.19;89.60
56992;BME280;42885;49.754;18.636;2023-12-04T05:59:18;98917.09;;;-1.15;90.77
56992;BME280;42885;49.754;18.636;2023-12-04T06:01:50;98919.67;;;-1.20;90.82
56992;BME280;42885;49.754;18.636;2023-12-04T06:04:21;98913.27;;;-1.37;92.12
56992;BME280;42885;49.754;18.636;2023-12-04T06:06:53;98911.10;;;-1.19;91.89
56992;BME280;42885;49.754;18.636;2023-12-04T06:09:24;98913.66;;;-1.16;90.74
56992;BME280;42885;49.754;18.636;2023-12-04T06:11:55;98900.41;;;-1.26;90.29
56992;BME280;42885;49.754;18.636;2023-12-04T06:14:27;98905.10;;;-1.26;89.95
56992;BME280;42885;49.754;18.636;2023-12-04T06:16:58;98904.25;;;-1.23;88.59
56992;BME280;42885;49.754;18.636;2023-12-04T06:19:29;98898.70;;;-1.22;88.44
56992;BME280;42885;49.754;18.636;2023-12-04T06:22:00;98899.54;;;-1.20;87.70
56992;BME280;42885;49.754;18.636;2023-12-04T06:24:32;98907.23;;;-1.22;89.52
56992;BME280;42885;49.754;18.636;2023-12-04T06:27:04;98912.36;;;-1.09;89.36
56992;BME280;42885;49.754;18.636;2023-12-04T06:29:36;98907.30;;;-1.50;90.03
56992;BME280;42885;49.754;18.636;2023-12-04T06:32:08;98919.67;;;-1.34;89.68
56992;BME280;42885;49.754;18.636;2023-12-04T06:34:39;98921.80;;;-1.18;88.67
56992;BME280;42885;49.754;18.636;2023-12-04T06:37:12;98912.86;;;-1.41;89.49
56992;BME280;42885;49.754;18.636;2023-12-04T06:39:45;98900.79;;;-1.13;88.81
56992;BME280;42885;49.754;18.636;2023-12-04T06:42:18;98903.76;;;-0.98;87.74
56992;BME280;42885;49.754;18.636;2023-12-04T06:44:49;98897.38;;;-1.07;86.87
56992;BME280;42885;49.754;18.636;2023-12-04T06:47:22;98898.28;;;-1.28;85.91
56992;BME280;42885;49.754;18.636;2023-12-04T06:49:53;98896.13;;;-1.29;86.21
56992;BME280;42885;49.754;18.636;2023-12-04T06:52:24;98897.38;;;-1.13;86.20
56992;BME280;42885;49.754;18.636;2023-12-04T06:54:55;98894.77;;;-0.98;84.10
56992;BME280;42885;49.754;18.636;2023-12-04T06:57:27;98902.58;;;-1.38;83.04
56992;BME280;42885;49.754;18.636;2023-12-04T06:59:58;98905.10;;;-1.26;83.90
56992;BME280;42885;49.754;18.636;2023-12-04T07:02:29;98912.02;;;-1.56;84.13
56992;BME280;42885;49.754;18.636;2023-12-04T07:05:00;98917.16;;;-1.60;85.30
56992;BME280;42885;49.754;18.636;2023-12-04T07:07:33;98921.81;;;-1.29;84.86
56992;BME280;42885;49.754;18.636;2023-12-04T07:10:04;98925.24;;;-1.30;83.26
56992;BME280;42885;49.754;18.636;2023-12-04T07:12:36;98920.00;;;-0.92;83.97
56992;BME280;42885;49.754;18.636;2023-12-04T07:15:07;98922.98;;;-0.84;83.45
56992;BME280;42885;49.754;18.636;2023-12-04T07:17:39;98920.80;;;-0.72;83.71
56992;BME280;42885;49.754;18.636;2023-12-04T07:20:11;98928.06;;;-0.71;82.31
56992;BME280;42885;49.754;18.636;2023-12-04T07:22:42;98928.52;;;-0.76;82.04
56992;BME280;42885;49.754;18.636;2023-12-04T07:25:13;98919.94;;;-0.69;83.63
56992;BME280;42885;49.754;18.636;2023-12-04T07:27:46;98919.91;;;-0.66;83.15
56992;BME280;42885;49.754;18.636;2023-12-04T07:30:19;98919.78;;;0.24;83.63
56992;BME280;42885;49.754;18.636;2023-12-04T07:32:51;98924.44;;;-0.26;81.44
56992;BME280;42885;49.754;18.636;2023-12-04T07:35:23;98919.26;;;-0.20;80.06
56992;BME280;42885;49.754;18.636;2023-12-04T07:37:54;98922.67;;;-0.17;78.55
56992;BME280;42885;49.754;18.636;2023-12-04T07:40:25;98925.63;;;-0.12;77.96
56992;BME280;42885;49.754;18.636;2023-12-04T07:42:57;98925.95;;;0.06;77.53
56992;BME280;42885;49.754;18.636;2023-12-04T07:45:28;98925.42;;;0.17;75.98
56992;BME280;42885;49.754;18.636;2023-12-04T07:47:59;98936.13;;;0.21;76.45
56992;BME280;42885;49.754;18.636;2023-12-04T07:50:30;98934.36;;;0.26;76.24
56992;BME280;42885;49.754;18.636;2023-12-04T07:53:02;98929.92;;;1.29;86.70
56992;BME280;42885;49.754;18.636;2023-12-04T07:55:33;98926.85;;;1.68;79.03
56992;BME280;42885;49.754;18.636;2023-12-04T07:58:04;98928.53;;;0.58;74.81
56992;BME280;42885;49.754;18.636;2023-12-04T08:00:35;98928.75;;;0.32;75.01
56992;BME280;42885;49.754;18.636;2023-12-04T08:03:07;98924.76;;;0.47;74.58
56992;BME280;42885;49.754;18.636;2023-12-04T08:05:38;98921.27;;;0.54;74.12
56992;BME280;42885;49.754;18.636;2023-12-04T08:08:09;98919.06;;;0.59;73.53
56992;BME280;42885;49.754;18.636;2023-12-04T08:10:40;98923.24;;;0.72;72.32
56992;BME280;42885;49.754;18.636;2023-12-04T08:13:12;98918.46;;;0.76;72.19
56992;BME280;42885;49.754;18.636;2023-12-04T08:15:43;98918.78;;;0.87;71.66
56992;BME280;42885;49.754;18.636;2023-12-04T08:18:14;98912.28;;;0.93;71.27
56992;BME280;42885;49.754;18.636;2023-12-04T08:20:46;98914.91;;;0.88;69.91
56992;BME280;42885;49.754;18.636;2023-12-04T08:23:17;98912.59;;;1.03;69.24
56992;BME280;42885;49.754;18.636;2023-12-04T08:25:48;98913.45;;;1.05;69.49
56992;BME280;42885;49.754;18.636;2023-12-04T08:28:19;98909.83;;;1.20;68.79
56992;BME280;42885;49.754;18.636;2023-12-04T08:30:50;98920.48;;;1.28;68.23
56992;BME280;42885;49.754;18.636;2023-12-04T08:33:21;98914.62;;;1.16;69.58
56992;BME280;42885;49.754;18.636;2023-12-04T08:35:52;98912.00;;;1.18;68.61
56992;BME280;42885;49.754;18.636;2023-12-04T08:38:23;98912.23;;;1.34;67.63
56992;BME280;42885;49.754;18.636;2023-12-04T08:40:54;98903.33;;;1.23;67.97
56992;BME280;42885;49.754;18.636;2023-12-04T08:43:25;98906.95;;;1.44;67.29
56992;BME280;42885;49.754;18.636;2023-12-04T08:45:56;98907.48;;;1.37;66.71
56992;BME280;42885;49.754;18.636;2023-12-04T08:48:29;98906.87;;;1.51;66.27
56992;BME280;42885;49.754;18.636;2023-12-04T08:51:00;98908.29;;;1.41;66.31
56992;BME280;42885;49.754;18.636;2023-12-04T08:53:32;98908.41;;;1.31;66.38
56992;BME280;42885;49.754;18.636;2023-12-04T08:56:03;98906.88;;;1.50;66.14
56992;BME280;42885;49.754;18.636;2023-12-04T08:58:34;98904.15;;;1.62;65.43
56992;BME280;42885;49.754;18.636;2023-12-04T09:01:05;98907.82;;;1.76;65.49
56992;BME280;42885;49.754;18.636;2023-12-04T09:03:38;98910.49;;;1.69;64.99
56992;BME280;42885;49.754;18.636;2023-12-04T09:06:09;98904.08;;;1.67;64.57
56992;BME280;42885;49.754;18.636;2023-12-04T09:08:40;98893.08;;;1.85;64.23
56992;BME280;42885;49.754;18.636;2023-12-04T09:11:12;98899.71;;;2.01;63.90
56992;BME280;42885;49.754;18.636;2023-12-04T09:13:44;98891.16;;;1.98;63.48
56992;BME280;42885;49.754;18.636;2023-12-04T09:16:15;98892.95;;;1.92;63.42
56992;BME280;42885;49.754;18.636;2023-12-04T09:18:46;98889.64;;;2.12;63.14
56992;BME280;42885;49.754;18.636;2023-12-04T09:21:17;98885.44;;;2.32;62.73
56992;BME280;42885;49.754;18.636;2023-12-04T09:23:48;98889.16;;;2.41;61.87
56992;BME280;42885;49.754;18.636;2023-12-04T09:26:19;98887.56;;;2.06;61.85
56992;BME280;42885;49.754;18.636;2023-12-04T09:28:50;98883.67;;;2.08;62.65
56992;BME280;42885;49.754;18.636;2023-12-04T09:31:21;98884.62;;;2.30;62.67
56992;BME280;42885;49.754;18.636;2023-12-04T09:33:52;98878.01;;;2.39;62.32
56992;BME280;42885;49.754;18.636;2023-12-04T09:36:23;98869.62;;;2.26;61.96
56992;BME280;42885;49.754;18.636;2023-12-04T09:38:54;98865.01;;;2.44;62.26
56992;BME280;42885;49.754;18.636;2023-12-04T09:41:25;98862.17;;;2.58;61.72
56992;BME280;42885;49.754;18.636;2023-12-04T09:43:56;98860.50;;;2.31;61.98
56992;BME280;42885;49.754;18.636;2023-12-04T09:46:28;98858.11;;;2.18;61.96
56992;BME280;42885;49.754;18.636;2023-12-04T09:49:00;98848.47;;;2.53;61.80
56992;BME280;42885;49.754;18.636;2023-12-04T09:51:31;98852.59;;;2.14;61.82
56992;BME280;42885;49.754;18.636;2023-12-04T09:54:02;98837.42;;;2.44;61.82
56992;BME280;42885;49.754;18.636;2023-12-04T09:56:35;98840.46;;;2.44;61.49
56992;BME280;42885;49.754;18.636;2023-12-04T09:59:08;98828.84;;;2.44;61.33
56992;BME280;42885;49.754;18.636;2023-12-04T10:01:40;98829.98;;;2.29;60.93
56992;BME280;42885;49.754;18.636;2023-12-04T10:04:11;98826.27;;;3.30;60.70
56992;BME280;42885;49.754;18.636;2023-12-04T10:06:43;98818.23;;;2.58;60.44
56992;BME280;42885;49.754;18.636;2023-12-04T10:09:14;98802.44;;;2.73;60.33
56992;BME280;42885;49.754;18.636;2023-12-04T10:11:48;98810.71;;;2.68;60.18
56992;BME280;42885;49.754;18.636;2023-12-04T10:14:21;98812.70;;;2.77;59.93
56992;BME280;42885;49.754;18.636;2023-12-04T10:16:52;98799.23;;;3.62;59.69
56992;BME280;42885;49.754;18.636;2023-12-04T10:19:27;98790.11;;;2.65;58.99
56992;BME280;42885;49.754;18.636;2023-12-04T10:22:02;98792.77;;;3.05;58.94
56992;BME280;42885;49.754;18.636;2023-12-04T10:24:35;98793.58;;;3.07;59.07
56992;BME280;42885;49.754;18.636;2023-12-04T10:27:08;98797.73;;;3.34;58.57
56992;BME280;42885;49.754;18.636;2023-12-04T10:29:45;98800.24;;;3.17;58.23
56992;BME280;42885;49.754;18.636;2023-12-04T10:32:20;98793.30;;;2.99;59.28
56992;BME280;42885;49.754;18.636;2023-12-04T10:34:51;98790.25;;;3.21;58.18
56992;BME280;42885;49.754;18.636;2023-12-04T10:37:22;98791.34;;;3.30;57.97
56992;BME280;42885;49.754;18.636;2023-12-04T10:39:55;98786.47;;;3.36;57.97
56992;BME280;42885;49.754;18.636;2023-12-04T10:42:27;98789.48;;;3.36;57.34
56992;BME280;42885;49.754;18.636;2023-12-04T10:45:00;98782.98;;;3.37;57.46
56992;BME280;42885;49.754;18.636;2023-12-04T10:47:31;98783.63;;;3.83;57.10
56992;BME280;42885;49.754;18.636;2023-12-04T10:50:04;98763.00;;;6.55;51.52
56992;BME280;42885;49.754;18.636;2023-12-04T10:52:38;98756.16;;;7.45;46.83
56992;BME280;42885;49.754;18.636;2023-12-04T10:55:12;98753.24;;;7.85;45.15
56992;BME280;42885;49.754;18.636;2023-12-04T10:57:43;98752.25;;;8.40;45.00
56992;BME280;42885;49.754;18.636;2023-12-04T11:00:17;98750.09;;;8.50;43.76
56992;BME280;42885;49.754;18.636;2023-12-04T11:02:49;98743.84;;;8.44;43.79
56992;BME280;42885;49.754;18.636;2023-12-04T11:05:21;98741.77;;;8.42;43.80
56992;BME280;42885;49.754;18.636;2023-12-04T11:07:56;98736.30;;;7.96;43.61
56992;BME280;42885;49.754;18.636;2023-12-04T11:10:30;98721.86;;;8.98;43.63
56992;BME280;42885;49.754;18.636;2023-12-04T11:13:06;98727.59;;;8.47;42.94
56992;BME280;42885;49.754;18.636;2023-12-04T11:15:40;98723.30;;;8.46;43.40
56992;BME280;42885;49.754;18.636;2023-12-04T11:18:14;98717.88;;;8.61;43.67
56992;BME280;42885;49.754;18.636;2023-12-04T11:20:48;98712.83;;;9.05;42.41
56992;BME280;42885;49.754;18.636;2023-12-04T11:23:24;98707.55;;;9.07;42.98
56992;BME280;42885;49.754;18.636;2023-12-04T11:25:57;98701.84;;;9.07;42.80
56992;BME280;42885;49.754;18.636;2023-12-04T11:28:31;98702.70;;;9.08;42.28
56992;BME280;42885;49.754;18.636;2023-12-04T11:31:02;98703.19;;;9.16;42.21
56992;BME280;42885;49.754;18.636;2023-12-04T11:33:37;98695.89;;;11.50;43.04
56992;BME280;42885;49.754;18.636;2023-12-04T11:36:10;98695.49;;;9.85;41.57
56992;BME280;42885;49.754;18.636;2023-12-04T11:38:46;98686.27;;;9.60;41.54
56992;BME280;42885;49.754;18.636;2023-12-04T11:41:21;98692.45;;;9.31;42.10
56992;BME280;42885;49.754;18.636;2023-12-04T11:44:00;98684.83;;;8.90;41.62
56992;BME280;42885;49.754;18.636;2023-12-04T11:46:26;98694.55;;;8.48;42.38
56992;BME280;42885;49.754;18.636;2023-12-04T11:51:50;98678.14;;;8.65;43.75
56992;BME280;42885;49.754;18.636;2023-12-04T11:54:22;98676.94;;;8.53;43.06
56992;BME280;42885;49.754;18.636;2023-12-04T11:59:42;98668.35;;;7.90;43.83
56992;BME280;42885;49.754;18.636;2023-12-04T12:02:14;98664.05;;;8.10;43.79
56992;BME280;42885;49.754;18.636;2023-12-04T12:04:47;98662.86;;;8.07;43.87
56992;BME280;42885;49.754;18.636;2023-12-04T12:07:18;98659.23;;;7.90;43.39
56992;BME280;42885;49.754;18.636;2023-12-04T12:09:49;98651.16;;;7.76;43.63
56992;BME280;42885;49.754;18.636;2023-12-04T12:12:20;98650.63;;;8.38;43.81
56992;BME280;42885;49.754;18.636;2023-12-04T12:14:51;98640.42;;;8.43;43.73
56992;BME280;42885;49.754;18.636;2023-12-04T12:17:22;98645.21;;;8.13;43.13
56992;BME280;42885;49.754;18.636;2023-12-04T12:19:54;98638.70;;;8.13;43.83
56992;BME280;42885;49.754;18.636;2023-12-04T12:22:27;98624.28;;;8.34;43.49
56992;BME280;42885;49.754;18.636;2023-12-04T12:24:58;98624.28;;;8.34;43.49
56992;BME280;42885;49.754;18.636;2023-12-04T12:27:30;98615.64;;;8.53;43.20
56992;BME280;42885;49.754;18.636;2023-12-04T12:30:02;98624.53;;;7.58;43.81
56992;BME280;42885;49.754;18.636;2023-12-04T12:32:34;98613.57;;;7.29;45.73
56992;BME280;42885;49.754;18.636;2023-12-04T12:35:08;98617.84;;;7.53;45.36
56992;BME280;42885;49.754;18.636;2023-12-04T12:37:40;98615.14;;;6.68;47.01
56992;BME280;42885;49.754;18.636;2023-12-04T12:40:11;98613.45;;;5.96;47.95
56992;BME280;42885;49.754;18.636;2023-12-04T12:42:42;98610.25;;;5.24;49.27
56992;BME280;42885;49.754;18.636;2023-12-04T12:45:13;98609.62;;;5.18;49.59
56992;BME280;42885;49.754;18.636;2023-12-04T12:47:44;98596.88;;;5.37;49.67
56992;BME280;42885;49.754;18.636;2023-12-04T12:50:17;98592.70;;;5.06;49.59
56992;BME280;42885;49.754;18.636;2023-12-04T12:52:49;98596.31;;;4.60;50.63
56992;BME280;42885;49.754;18.636;2023-12-04T12:55:23;98582.77;;;5.05;50.63
56992;BME280;42885;49.754;18.636;2023-12-04T12:57:58;98573.17;;;6.09;48.88
56992;BME280;42885;49.754;18.636;2023-12-04T13:00:29;98583.44;;;6.12;47.74
56992;BME280;42885;49.754;18.636;2023-12-04T13:02:59;98584.81;;;5.22;49.50
56992;BME280;42885;49.754;18.636;2023-12-04T13:05:31;98582.02;;;4.46;51.47
56992;BME280;42885;49.754;18.636;2023-12-04T13:08:02;98574.85;;;4.41;52.52
56992;BME280;42885;49.754;18.636;2023-12-04T13:10:34;98576.03;;;4.01;52.98
56992;BME280;42885;49.754;18.636;2023-12-04T13:13:13;98581.09;;;3.74;53.82
56992;BME280;42885;49.754;18.636;2023-12-04T13:15:44;98576.27;;;3.60;54.47
56992;BME280;42885;49.754;18.636;2023-12-04T13:18:15;98574.34;;;3.35;55.30
56992;BME280;42885;49.754;18.636;2023-12-04T13:20:46;98580.51;;;3.12;56.32
56992;BME280;42885;49.754;18.636;2023-12-04T13:23:18;98582.98;;;3.17;56.56
56992;BME280;42885;49.754;18.636;2023-12-04T13:25:49;98569.45;;;3.07;56.86
56992;BME280;42885;49.754;18.636;2023-12-04T13:28:20;98562.24;;;3.02;56.85